createdAt,value
2022-09-01T00:02:52.838Z,75.73
2022-09-01T00:07:57.156Z,76.00
2022-09-01T00:13:02.969Z,76.49
2022-09-01T00:18:07.104Z,76.66
2022-09-01T00:23:11.352Z,77.21
2022-09-01T00:28:16.879Z,77.62
2022-09-01T00:33:21.249Z,78.95
2022-09-01T00:38:25.435Z,78.31
2022-09-01T00:43:42.375Z,77.84
2022-09-01T00:48:46.654Z,78.02
2022-09-01T00:53:51.467Z,77.69
2022-09-01T00:58:57.138Z,77.13
2022-09-01T01:04:02.604Z,76.46
2022-09-01T01:09:06.957Z,76.25
2022-09-01T01:14:12.477Z,77.98
2022-09-01T01:19:39.109Z,78.77
2022-09-01T01:24:48.562Z,79.53
2022-09-01T01:29:54.975Z,82.38
2022-09-01T01:34:58.998Z,80.90
2022-09-01T01:40:06.616Z,80.48
2022-09-01T01:45:13.059Z,79.66
2022-09-01T01:50:17.513Z,78.61
2022-09-01T01:55:29.779Z,77.93
2022-09-01T02:00:35.766Z,78.49
2022-09-01T02:05:41.616Z,79.59
2022-09-01T02:10:49.881Z,80.88
2022-09-01T02:15:56.950Z,81.03
2022-09-01T02:21:01.448Z,79.63
2022-09-01T02:26:17.277Z,78.54
2022-09-01T02:31:24.953Z,77.67
2022-09-01T02:36:32.912Z,79.24
2022-09-01T02:41:39.507Z,81.68
2022-09-01T02:46:46.508Z,82.05
2022-09-01T02:51:54.240Z,81.60
2022-09-01T02:57:00.544Z,81.49
2022-09-01T03:02:08.406Z,79.56
2022-09-01T03:07:13.918Z,78.42
2022-09-01T03:12:20.037Z,78.07
2022-09-01T03:17:25.098Z,77.83
2022-09-01T03:22:29.783Z,78.45
2022-09-01T03:27:35.266Z,78.91
2022-09-01T03:32:39.674Z,79.22
2022-09-01T03:37:45.216Z,81.13
2022-09-01T03:42:52.825Z,82.00
2022-09-01T03:47:58.045Z,80.28
2022-09-01T03:53:03.309Z,78.59
2022-09-01T03:58:12.555Z,79.47
2022-09-01T04:03:28.470Z,79.23
2022-09-01T04:08:35.958Z,80.08
2022-09-01T04:13:47.502Z,80.38
2022-09-01T04:18:52.511Z,79.30
2022-09-01T04:24:05.343Z,78.60
2022-09-01T04:29:12.943Z,78.95
2022-09-01T04:34:17.214Z,79.11
2022-09-01T04:39:22.299Z,79.57
2022-09-01T04:44:29.023Z,80.96
2022-09-01T04:49:33.901Z,79.63
2022-09-01T04:54:40.148Z,82.30
2022-09-01T04:59:45.909Z,80.89
2022-09-01T05:04:52.567Z,80.65
2022-09-01T05:10:01.099Z,81.27
2022-09-01T05:15:25.613Z,79.46
2022-09-01T05:20:30.456Z,78.92
2022-09-01T05:25:40.881Z,78.68
2022-09-01T05:30:48.707Z,77.92
2022-09-01T05:35:59.091Z,77.36
2022-09-01T05:41:08.793Z,77.65
2022-09-01T05:46:20.782Z,79.26
2022-09-01T05:51:43.906Z,78.89
2022-09-01T05:56:50.935Z,78.94
2022-09-01T06:02:01.103Z,79.42
2022-09-01T06:07:14.675Z,79.76
2022-09-01T06:12:24.306Z,79.53
2022-09-01T06:17:31.873Z,78.89
2022-09-01T06:22:41.188Z,77.58
2022-09-01T06:27:48.363Z,76.57
2022-09-01T06:32:55.211Z,74.95
2022-09-01T06:38:02.122Z,75.26
2022-09-01T06:43:21.988Z,73.38
2022-09-01T06:48:31.045Z,72.18
2022-09-01T06:53:51.264Z,70.13
2022-09-01T06:58:55.650Z,66.66
2022-09-01T07:04:02.902Z,65.83
2022-09-01T07:09:20.069Z,66.00
2022-09-01T07:21:02.749Z,62.69
2022-09-01T07:26:08.531Z,61.01
2022-09-01T07:48:03.494Z,58.33
2022-09-01T07:53:13.218Z,57.44
2022-09-01T07:58:20.012Z,56.98
2022-09-01T08:03:30.043Z,56.24
2022-09-01T08:08:37.501Z,56.28
2022-09-01T08:13:42.209Z,55.08
2022-09-01T08:18:49.343Z,53.15
2022-09-01T08:24:08.274Z,53.27
2022-09-01T08:29:13.699Z,52.53
2022-09-01T08:34:19.963Z,51.98
2022-09-01T08:39:25.454Z,52.98
2022-09-01T08:44:38.523Z,52.29
2022-09-01T08:49:46.405Z,51.07
2022-09-01T08:55:26.134Z,49.85
2022-09-01T09:00:37.128Z,51.02
2022-09-01T09:06:07.180Z,49.53
2022-09-01T09:11:23.801Z,47.32
2022-09-01T09:16:31.944Z,46.45
2022-09-01T09:21:39.514Z,48.41
2022-09-01T09:26:49.869Z,47.46
2022-09-01T09:32:06.706Z,44.92
2022-09-01T09:37:28.701Z,45.39
2022-09-01T09:42:36.665Z,42.85
2022-09-01T09:47:44.906Z,43.39
2022-09-01T09:52:50.816Z,44.19
2022-09-01T09:57:59.715Z,43.78
2022-09-01T10:03:08.007Z,44.19
2022-09-01T10:08:37.542Z,42.79
2022-09-01T10:13:43.158Z,42.06
2022-09-01T10:18:49.661Z,44.87
2022-09-01T10:24:16.092Z,45.46
2022-09-01T10:29:27.111Z,45.38
2022-09-01T10:34:36.708Z,44.99
2022-09-01T10:40:10.664Z,47.77
2022-09-01T10:45:30.337Z,49.32
2022-09-01T10:50:35.667Z,48.72
2022-09-01T10:55:46.405Z,48.85
2022-09-01T11:12:33.824Z,44.71
2022-09-01T11:17:41.241Z,42.35
2022-09-01T11:22:47.808Z,39.75
2022-09-01T11:28:19.530Z,37.44
2022-09-01T11:33:42.384Z,36.14
2022-09-01T11:38:51.481Z,37.78
2022-09-01T11:44:01.343Z,38.17
2022-09-01T11:49:17.465Z,38.88
2022-09-01T11:54:21.692Z,40.55
2022-09-01T11:59:36.517Z,41.70
2022-09-01T12:04:42.400Z,43.96
2022-09-01T12:09:49.241Z,43.53
2022-09-01T12:15:05.684Z,43.67
2022-09-01T12:20:29.803Z,42.64
2022-09-01T12:25:36.288Z,44.33
2022-09-01T12:30:43.729Z,45.32
2022-09-01T12:35:49.765Z,44.82
2022-09-01T12:40:55.492Z,45.73
2022-09-01T12:46:02.879Z,46.21
2022-09-01T12:51:26.528Z,48.00
2022-09-01T12:56:35.444Z,49.20
2022-09-01T13:01:41.100Z,49.46
2022-09-01T13:06:46.748Z,48.21
2022-09-01T13:12:07.693Z,48.92
2022-09-01T13:17:14.145Z,49.57
2022-09-01T13:22:19.934Z,50.48
2022-09-01T13:27:25.002Z,49.19
2022-09-01T13:32:29.275Z,47.50
2022-09-01T13:37:34.940Z,47.80
2022-09-01T13:42:40.185Z,49.14
2022-09-01T13:53:12.531Z,48.99
2022-09-01T13:58:17.395Z,49.54
2022-09-01T14:03:24.161Z,48.45
2022-09-01T14:08:30.205Z,48.26
2022-09-01T14:13:35.493Z,47.57
2022-09-01T14:18:40.843Z,47.85
2022-09-01T14:23:46.882Z,48.96
2022-09-01T14:28:51.273Z,49.02
2022-09-01T14:33:55.476Z,48.88
2022-09-01T14:39:01.116Z,49.47
2022-09-01T14:44:07.070Z,48.20
2022-09-01T14:49:11.926Z,47.60
2022-09-01T14:54:17.484Z,47.59
2022-09-01T14:59:21.580Z,48.05
2022-09-01T15:04:26.388Z,48.77
2022-09-01T15:09:32.216Z,49.38
2022-09-01T15:14:38.146Z,50.23
2022-09-01T15:19:42.324Z,50.47
2022-09-01T15:24:49.381Z,48.30
2022-09-01T15:29:56.289Z,49.35
2022-09-01T15:35:00.567Z,50.21
2022-09-01T15:40:08.334Z,51.23
2022-09-01T15:45:15.050Z,51.21
2022-09-01T15:50:22.625Z,53.42
2022-09-01T15:55:31.008Z,54.01
2022-09-01T16:00:35.364Z,56.94
2022-09-01T16:05:43.337Z,56.67
2022-09-01T16:10:49.096Z,57.10
2022-09-01T16:16:07.541Z,56.84
2022-09-01T16:21:19.463Z,55.72
2022-09-01T16:26:25.348Z,56.10
2022-09-01T16:31:33.293Z,57.80
2022-09-01T16:36:46.221Z,56.83
2022-09-01T16:41:59.990Z,59.03
2022-09-01T16:47:13.852Z,59.78
2022-09-01T16:52:23.982Z,60.22
2022-09-01T16:57:38.620Z,58.63
2022-09-01T17:02:52.982Z,59.48
2022-09-01T17:08:07.791Z,59.34
2022-09-01T17:13:24.220Z,57.94
2022-09-01T17:18:38.592Z,58.77
2022-09-01T17:23:51.097Z,59.34
2022-09-01T17:28:59.977Z,60.25
2022-09-01T17:34:14.466Z,61.48
2022-09-01T17:39:32.324Z,62.28
2022-09-01T17:44:46.627Z,63.36
2022-09-01T17:50:00.415Z,64.09
2022-09-01T17:55:14.785Z,64.07
2022-09-01T18:00:24.583Z,63.76
2022-09-01T18:05:30.746Z,63.38
2022-09-01T18:10:40.559Z,63.32
2022-09-01T18:15:52.543Z,63.52
2022-09-01T18:21:03.650Z,63.57
2022-09-01T18:26:18.187Z,64.37
2022-09-01T18:31:50.641Z,64.17
2022-09-01T18:37:01.255Z,63.56
2022-09-01T18:42:15.885Z,63.28
2022-09-01T18:47:31.570Z,63.24
2022-09-01T18:52:54.248Z,63.59
2022-09-01T18:58:04.865Z,63.95
2022-09-01T19:03:19.955Z,63.84
2022-09-01T19:08:37.890Z,64.22
2022-09-01T19:13:55.069Z,63.84
2022-09-01T19:19:08.687Z,64.12
2022-09-01T19:24:24.917Z,64.52
2022-09-01T19:29:35.208Z,64.38
2022-09-01T19:34:52.061Z,63.70
2022-09-01T19:39:57.228Z,66.57
2022-09-01T19:45:10.151Z,69.11
2022-09-01T19:50:25.290Z,70.01
2022-09-01T19:55:35.827Z,72.77
2022-09-01T20:00:51.120Z,72.64
2022-09-01T20:06:01.476Z,73.07
2022-09-01T20:11:12.061Z,71.29
2022-09-01T20:16:27.809Z,71.20
2022-09-01T20:21:40.158Z,71.42
2022-09-01T20:26:49.692Z,71.69
2022-09-01T20:31:58.101Z,72.50
2022-09-01T20:37:07.572Z,71.64
2022-09-01T20:42:16.912Z,74.17
2022-09-01T20:47:23.328Z,74.77
2022-09-01T20:52:40.202Z,74.20
2022-09-01T20:57:51.306Z,73.08
2022-09-01T21:03:04.331Z,72.72
2022-09-01T21:08:29.866Z,71.48
2022-09-01T21:13:52.360Z,72.23
2022-09-01T21:19:04.872Z,73.29
2022-09-01T21:24:10.431Z,71.85
2022-09-01T21:29:28.922Z,70.85
2022-09-01T21:34:33.071Z,73.06
2022-09-01T21:39:38.916Z,72.12
2022-09-01T21:44:44.696Z,71.87
2022-09-01T21:49:49.150Z,72.25
2022-09-01T21:54:55.117Z,71.95
2022-09-01T21:59:59.198Z,72.17
2022-09-01T22:05:06.028Z,73.35
2022-09-01T22:10:14.458Z,75.03
2022-09-01T22:15:21.481Z,76.76
2022-09-01T22:20:28.689Z,77.51
2022-09-01T22:25:35.788Z,80.14
2022-09-01T22:30:46.079Z,85.57
2022-09-01T22:35:52.301Z,86.96
2022-09-01T22:40:59.636Z,85.69
2022-09-01T22:46:07.519Z,86.42
2022-09-01T22:51:13.543Z,85.64
2022-09-01T22:56:26.270Z,85.56
2022-09-01T23:01:33.123Z,84.59
2022-09-01T23:06:42.127Z,85.24
2022-09-01T23:11:49.307Z,85.97
2022-09-01T23:16:53.392Z,86.41
2022-09-01T23:21:57.418Z,88.33
2022-09-01T23:27:03.282Z,87.18
2022-09-01T23:32:07.592Z,88.00
2022-09-01T23:37:11.741Z,89.59
2022-09-01T23:42:17.136Z,87.97
2022-09-01T23:47:21.323Z,88.42
2022-09-01T23:52:25.502Z,89.64
2022-09-01T23:57:31.314Z,89.66
